TimeCST,TemperatureF,Dew PointF,Humidity,Sea Level PressureIn,VisibilityMPH,Wind Direction,Wind SpeedMPH,Gust SpeedMPH,PrecipitationIn,Events,Conditions,WindDirDegrees,DateUTC
12:15 AM,36.3,30.7,80,29.76,10.0,SSW,3.5,-,N/A,,Clear,200,2013-12-19 06:15:00
12:35 AM,36.1,31.3,83,29.75,10.0,South,4.6,-,N/A,,Clear,170,2013-12-19 06:35:00
12:55 AM,36.0,30.9,82,29.75,10.0,South,6.9,-,N/A,,Clear,170,2013-12-19 06:55:00
1:15 AM,37.4,31.5,79,29.75,10.0,South,6.9,-,N/A,,Clear,190,2013-12-19 07:15:00
1:35 AM,37.4,31.6,80,29.75,10.0,South,9.2,-,N/A,,Clear,180,2013-12-19 07:35:00
1:55 AM,37.4,31.8,80,29.74,10.0,South,6.9,-,N/A,,Clear,180,2013-12-19 07:55:00
2:15 AM,36.3,31.5,83,29.75,10.0,South,5.8,-,N/A,,Clear,170,2013-12-19 08:15:00
2:35 AM,36.9,31.8,82,29.75,10.0,South,6.9,-,N/A,,Clear,180,2013-12-19 08:35:00
2:55 AM,36.5,31.8,83,29.74,10.0,South,8.1,-,N/A,,Clear,180,2013-12-19 08:55:00
3:15 AM,35.4,31.3,85,29.75,10.0,South,6.9,-,N/A,,Clear,180,2013-12-19 09:15:00
3:35 AM,35.6,31.6,85,29.75,10.0,South,4.6,-,N/A,,Clear,170,2013-12-19 09:35:00
3:55 AM,32.5,30.2,91,29.76,10.0,NNW,8.1,-,N/A,,Clear,340,2013-12-19 09:55:00
4:15 AM,34.3,31.1,88,29.76,10.0,Calm,Calm,-,N/A,,Clear,0,2013-12-19 10:15:00
4:35 AM,34.7,31.6,89,29.76,10.0,Calm,Calm,-,N/A,,Clear,0,2013-12-19 10:35:00
4:55 AM,33.4,31.1,91,29.76,10.0,North,4.6,-,N/A,,Clear,360,2013-12-19 10:55:00
5:15 AM,34.0,31.6,91,29.77,10.0,North,4.6,-,N/A,,Clear,10,2013-12-19 11:15:00
5:35 AM,33.4,30.7,90,29.76,10.0,NNE,3.5,-,N/A,,Clear,30,2013-12-19 11:35:00
5:55 AM,34.0,30.9,89,29.76,10.0,Calm,Calm,-,N/A,,Clear,0,2013-12-19 11:55:00
6:15 AM,32.9,30.6,91,29.77,10.0,Calm,Calm,-,N/A,,Clear,0,2013-12-19 12:15:00
6:35 AM,32.4,29.8,90,29.77,10.0,NNW,5.8,-,N/A,,Clear,340,2013-12-19 12:35:00
6:55 AM,32.0,30.0,92,29.77,10.0,North,4.6,-,N/A,,Clear,10,2013-12-19 12:55:00
7:15 AM,31.5,29.1,91,29.78,10.0,North,3.5,-,N/A,,Clear,350,2013-12-19 13:15:00
7:35 AM,30.7,28.6,92,29.79,10.0,NNW,4.6,-,N/A,,Clear,340,2013-12-19 13:35:00
7:55 AM,30.9,28.8,92,29.79,10.0,North,4.6,-,N/A,,Clear,350,2013-12-19 13:55:00
8:15 AM,30.7,28.4,91,29.79,10.0,North,5.8,-,N/A,,Clear,360,2013-12-19 14:15:00
8:35 AM,30.9,28.4,90,29.79,10.0,North,5.8,-,N/A,,Clear,360,2013-12-19 14:35:00
8:55 AM,31.1,28.8,91,29.81,10.0,North,6.9,-,N/A,,Clear,350,2013-12-19 14:55:00
9:15 AM,31.5,28.9,90,29.80,10.0,NNE,9.2,-,N/A,,Clear,30,2013-12-19 15:15:00
9:35 AM,32.0,29.5,90,29.81,10.0,North,9.2,-,N/A,,Clear,10,2013-12-19 15:35:00
9:55 AM,32.7,29.8,89,29.82,10.0,NNE,9.2,-,N/A,,Clear,20,2013-12-19 15:55:00
10:15 AM,33.6,29.5,85,29.82,10.0,NNE,11.5,-,N/A,,Clear,30,2013-12-19 16:15:00
10:35 AM,34.0,29.3,83,29.83,10.0,NNE,11.5,-,N/A,,Clear,20,2013-12-19 16:35:00
10:55 AM,34.3,29.1,81,29.83,10.0,NNE,10.4,-,N/A,,Clear,20,2013-12-19 16:55:00
11:15 AM,34.7,29.1,80,29.81,10.0,NNE,10.4,-,N/A,,Clear,30,2013-12-19 17:15:00
11:35 AM,35.6,29.5,78,29.79,10.0,NE,12.7,-,N/A,,Clear,40,2013-12-19 17:35:00
11:55 AM,36.0,29.7,78,29.79,10.0,NE,8.1,-,N/A,,Mostly Cloudy,50,2013-12-19 17:55:00
12:15 PM,36.5,29.8,77,29.78,10.0,NE,9.2,-,N/A,,Overcast,40,2013-12-19 18:15:00
12:35 PM,36.5,30.0,77,29.76,10.0,NNE,9.2,-,N/A,,Overcast,30,2013-12-19 18:35:00
12:55 PM,37.2,30.2,76,29.74,10.0,NE,9.2,-,N/A,,Overcast,40,2013-12-19 18:55:00
1:15 PM,37.4,30.2,75,29.73,10.0,NE,10.4,-,N/A,,Overcast,40,2013-12-19 19:15:00
1:35 PM,37.4,30.6,76,29.71,10.0,ENE,9.2,-,N/A,,Overcast,60,2013-12-19 19:35:00
1:55 PM,37.4,30.6,76,29.71,10.0,NE,8.1,-,N/A,,Overcast,50,2013-12-19 19:55:00
2:15 PM,37.4,30.7,77,29.72,10.0,NE,5.8,-,N/A,,Overcast,50,2013-12-19 20:15:00
2:35 PM,37.4,30.9,77,29.73,10.0,NNE,5.8,-,N/A,,Overcast,20,2013-12-19 20:35:00
2:55 PM,37.4,31.1,78,29.74,10.0,NNE,5.8,-,N/A,,Overcast,20,2013-12-19 20:55:00
3:15 PM,37.4,31.1,78,29.74,10.0,North,6.9,-,N/A,,Overcast,10,2013-12-19 21:15:00
3:35 PM,36.9,30.7,79,29.73,10.0,NNE,8.1,-,N/A,,Overcast,20,2013-12-19 21:35:00
3:55 PM,36.1,31.1,82,29.73,10.0,North,10.4,-,N/A,,Overcast,10,2013-12-19 21:55:00
4:15 PM,35.6,31.6,85,29.73,7.0,North,9.2,-,N/A,,Overcast,10,2013-12-19 22:15:00
4:35 PM,34.9,32.0,89,29.73,7.0,NNE,10.4,-,N/A,,Overcast,20,2013-12-19 22:35:00
4:55 PM,34.7,32.0,90,29.73,7.0,NNE,10.4,-,N/A,,Overcast,30,2013-12-19 22:55:00
5:15 PM,34.7,32.2,91,29.74,7.0,NNE,9.2,-,N/A,,Overcast,20,2013-12-19 23:15:00
5:35 PM,34.3,32.2,92,29.74,5.0,NNE,9.2,-,N/A,,Overcast,20,2013-12-19 23:35:00
5:55 PM,34.2,32.2,92,29.74,5.0,NNE,8.1,-,N/A,,Drizzle,20,2013-12-19 23:55:00
6:15 PM,33.8,32.0,93,29.74,5.0,NNE,9.2,-,N/A,,Overcast,30,2013-12-20 00:15:00
6:35 PM,33.4,32.0,94,29.74,5.0,NNE,9.2,-,N/A,,Overcast,20,2013-12-20 00:35:00
6:55 PM,32.9,32.0,96,29.74,4.0,NNE,10.4,-,N/A,,Overcast,30,2013-12-20 00:55:00
7:15 PM,32.9,31.8,96,29.74,4.0,NNE,11.5,-,N/A,,Overcast,30,2013-12-20 01:15:00
7:35 PM,32.5,31.6,96,29.74,4.0,NNE,11.5,-,N/A,,Overcast,30,2013-12-20 01:35:00
7:55 PM,32.4,31.5,96,29.74,3.0,NNE,10.4,-,N/A,,Overcast,30,2013-12-20 01:55:00
8:15 PM,32.2,31.5,97,29.73,3.0,NNE,9.2,-,N/A,,Overcast,30,2013-12-20 02:15:00
8:35 PM,32.0,31.3,97,29.74,2.5,NNE,8.1,-,N/A,,Overcast,20,2013-12-20 02:35:00
8:55 PM,32.0,31.1,96,29.74,1.8,NNE,8.1,-,N/A,,Overcast,20,2013-12-20 02:55:00
9:15 PM,32.0,31.1,96,29.75,2.0,North,8.1,-,N/A,,Overcast,10,2013-12-20 03:15:00
9:35 PM,31.8,30.7,96,29.74,1.8,North,12.7,17.3,N/A,,Overcast,360,2013-12-20 03:35:00
9:55 PM,31.5,30.6,96,29.76,1.5,North,8.1,17.3,N/A,,Overcast,360,2013-12-20 03:55:00
10:15 PM,31.1,30.2,96,29.75,1.5,North,10.4,-,N/A,,Overcast,360,2013-12-20 04:15:00
10:35 PM,30.9,30.0,96,29.76,1.8,North,10.4,-,N/A,,Overcast,350,2013-12-20 04:35:00
10:55 PM,30.9,30.0,96,29.76,1.8,North,11.5,17.3,N/A,,Overcast,350,2013-12-20 04:55:00
11:15 PM,30.7,29.8,96,29.77,1.2,NNW,13.8,-,N/A,,Overcast,340,2013-12-20 05:15:00
11:35 PM,30.2,29.3,96,29.76,1.0,North,12.7,17.3,N/A,,Overcast,360,2013-12-20 05:35:00
11:55 PM,30.0,29.3,97,29.76,1.0,North,12.7,16.1,N/A,,Overcast,10,2013-12-20 05:55:00